createdAt,value
2022-07-29T00:15:20.985Z,42.47
2022-07-29T00:45:21.156Z,42.63
2022-07-29T01:15:20.996Z,42.69
2022-07-29T01:45:20.988Z,42.9
2022-07-29T02:15:21.006Z,43.5
2022-07-29T02:45:21.039Z,44.18
2022-07-29T03:15:21.002Z,44.98
2022-07-29T03:45:21.030Z,45.74
2022-07-29T04:15:21.033Z,45.88
2022-07-29T04:45:22.238Z,46.32
2022-07-29T05:15:21.031Z,46.74
2022-07-29T05:45:21.034Z,46.65
2022-07-29T06:15:21.066Z,46.77
2022-07-29T06:45:21.057Z,46.34
2022-07-29T07:15:21.061Z,45.36
2022-07-29T07:45:21.054Z,45.4
2022-07-29T08:15:21.066Z,45.1
2022-07-29T08:45:21.069Z,44.09
2022-07-29T09:15:21.070Z,43.17
2022-07-29T09:45:21.059Z,42.44
2022-07-29T10:15:21.060Z,42.7
2022-07-29T10:45:21.075Z,41.51
2022-07-29T11:15:21.083Z,41.45
2022-07-29T11:45:44.845Z,40.95
2022-07-29T12:15:21.085Z,42.14
2022-07-29T12:45:21.109Z,38.23
2022-07-29T13:15:21.102Z,35.15
2022-07-29T13:45:21.131Z,34.83
2022-07-29T14:15:21.124Z,40.35
2022-07-29T14:45:21.119Z,48.87
2022-07-29T15:15:21.125Z,53.06
2022-07-29T15:45:21.121Z,54.92
2022-07-29T16:15:21.153Z,62.96
2022-07-29T16:45:21.593Z,65.45
2022-07-29T17:15:21.163Z,64.2
2022-07-29T17:45:21.130Z,64.96
2022-07-29T18:15:21.150Z,65.18
2022-07-29T18:45:21.169Z,65.93
2022-07-29T19:15:21.182Z,66.91
2022-07-29T19:45:21.166Z,68.06
2022-07-29T20:15:21.159Z,68.49
2022-07-29T20:45:21.170Z,69.63
2022-07-29T21:15:21.185Z,70.85
2022-07-29T21:45:21.186Z,71.09
2022-07-29T22:15:21.252Z,71.69
2022-07-29T22:45:21.209Z,72.63
2022-07-29T23:15:21.193Z,73.4
2022-07-29T23:45:21.191Z,74.26
